Etusivu
METAR-TAF:

METAR-TAF

Lentoasemat :

Schoolcraft County Airport

Manistique, Michigan, Yhdysvallat

Leveyspiiri: 45-58-29N, Pituuspiiri: 086-10-19W, korkeus merenpinnasta: 209 m

Tämänhetkinen sää

Tämä raportti tehtiin 24 minuuttia sitten, kello 03.55 UTC
Tuuli 4 kn pohjoisesta
Lämpötila -5°C
Kosteus 86%
Ilmanpaine 1021 hPa
Näkyvyys: 16.1 km
Pilvistä 1200 ft:n korkeudessa

METAR: KISQ 290355Z AUTO 36004KT 10SM OVC012 M05/M07 A3014 RMK AO2 T10551068 410171056

Aika: 23:19 (04:19 UTC)


TAF: puuttuu

Säähavainnot ja -ennusteet yli 4000 lentoasemalta (METAR- ja TAF-raportit).

Käytössä olevat sääasemat on merkitty karttaan keltaisilla ja punaisilla pisteillä.

Aseta hiiri pisteen päälle nähdäksesi sääaseman nimen.

Klikkaa sitten nähdäksesi säähavainnot ja -ennusteet.

Kartan vaihtaminen: klikkaa mustalla rastilla varustettuja vihreitä pisteitä, niin voit zoomata sisään; viivalla varustettua vihreää pistettä, niin voit zoomata ulos tai vihreitä nuolia, niin pääset viereisille kartoille.


METAR-TAF: